sensor_id;sensor_type;location;lat;lon;timestamp;pressure;altitude;pressure_sealevel;temperature;humidity
73860;BME280;62197;51.632;13.700;2023-05-19T00:00:03;101198.38;;;6.53;96.21
73860;BME280;62197;51.632;13.700;2023-05-19T00:02:29;101207.97;;;6.63;95.48
73860;BME280;62197;51.632;13.700;2023-05-19T00:04:59;101208.22;;;6.68;94.10
73860;BME280;62197;51.632;13.700;2023-05-19T00:07:29;101213.09;;;6.73;93.30
73860;BME280;62197;51.632;13.700;2023-05-19T00:09:55;101207.41;;;6.74;93.36
73860;BME280;62197;51.632;13.700;2023-05-19T00:12:20;101213.56;;;6.76;93.47
73860;BME280;62197;51.632;13.700;2023-05-19T00:14:46;101205.97;;;6.78;95.14
73860;BME280;62197;51.632;13.700;2023-05-19T00:17:11;101209.47;;;6.93;93.58
73860;BME280;62197;51.632;13.700;2023-05-19T00:19:36;101199.28;;;6.87;93.95
73860;BME280;62197;51.632;13.700;2023-05-19T00:22:03;101206.75;;;6.72;94.64
73860;BME280;62197;51.632;13.700;2023-05-19T00:24:29;101209.72;;;6.71;94.27
73860;BME280;62197;51.632;13.700;2023-05-19T00:26:54;101210.16;;;6.74;94.51
73860;BME280;62197;51.632;13.700;2023-05-19T00:29:19;101216.16;;;6.84;94.05
73860;BME280;62197;51.632;13.700;2023-05-19T00:31:45;101208.81;;;6.91;93.70
73860;BME280;62197;51.632;13.700;2023-05-19T00:34:10;101207.00;;;7.05;93.58
73860;BME280;62197;51.632;13.700;2023-05-19T00:36:35;101214.16;;;6.99;93.01
73860;BME280;62197;51.632;13.700;2023-05-19T00:39:02;101221.28;;;6.94;93.11
73860;BME280;62197;51.632;13.700;2023-05-19T00:41:27;101210.38;;;7.00;93.37
73860;BME280;62197;51.632;13.700;2023-05-19T00:43:52;101210.84;;;7.10;93.59
73860;BME280;62197;51.632;13.700;2023-05-19T00:46:18;101215.06;;;7.06;92.80
73860;BME280;62197;51.632;13.700;2023-05-19T00:48:44;101205.72;;;7.01;93.56
73860;BME280;62197;51.632;13.700;2023-05-19T00:51:10;101197.69;;;6.99;93.92
73860;BME280;62197;51.632;13.700;2023-05-19T00:53:39;101198.09;;;6.96;94.70
73860;BME280;62197;51.632;13.700;2023-05-19T00:56:04;101202.66;;;6.89;95.02
73860;BME280;62197;51.632;13.700;2023-05-19T00:58:30;101205.59;;;6.81;96.30
73860;BME280;62197;51.632;13.700;2023-05-19T01:00:58;101198.97;;;6.76;96.56
73860;BME280;62197;51.632;13.700;2023-05-19T01:03:32;101198.41;;;6.80;95.66
73860;BME280;62197;51.632;13.700;2023-05-19T01:06:02;101196.06;;;6.77;95.77
73860;BME280;62197;51.632;13.700;2023-05-19T01:08:34;101199.84;;;6.76;95.85
73860;BME280;62197;51.632;13.700;2023-05-19T01:11:00;101201.94;;;6.74;96.19
73860;BME280;62197;51.632;13.700;2023-05-19T01:13:28;101190.06;;;6.67;96.64
73860;BME280;62197;51.632;13.700;2023-05-19T01:16:11;101199.59;;;6.71;97.41
73860;BME280;62197;51.632;13.700;2023-05-19T01:21:29;101189.16;;;6.60;96.98
73860;BME280;62197;51.632;13.700;2023-05-19T01:24:08;101200.38;;;6.65;97.34
73860;BME280;62197;51.632;13.700;2023-05-19T01:32:41;101204.63;;;6.68;96.90
73860;BME280;62197;51.632;13.700;2023-05-19T01:35:08;101197.88;;;6.70;96.30
73860;BME280;62197;51.632;13.700;2023-05-19T01:37:35;101191.38;;;6.71;96.51
73860;BME280;62197;51.632;13.700;2023-05-19T01:40:01;101198.97;;;6.76;96.38
73860;BME280;62197;51.632;13.700;2023-05-19T01:42:27;101192.03;;;6.73;96.57
73860;BME280;62197;51.632;13.700;2023-05-19T01:44:54;101190.50;;;6.71;96.08
73860;BME280;62197;51.632;13.700;2023-05-19T01:47:21;101199.59;;;6.71;96.39
73860;BME280;62197;51.632;13.700;2023-05-19T01:49:46;101189.44;;;6.72;96.05
73860;BME280;62197;51.632;13.700;2023-05-19T01:52:12;101192.41;;;6.70;96.24
73860;BME280;62197;51.632;13.700;2023-05-19T01:54:37;101195.56;;;6.67;96.13
73860;BME280;62197;51.632;13.700;2023-05-19T01:57:15;101202.06;;;6.66;96.37
73860;BME280;62197;51.632;13.700;2023-05-19T01:59:58;101189.56;;;6.57;97.24
73860;BME280;62197;51.632;13.700;2023-05-19T02:05:22;101201.81;;;6.61;97.26
73860;BME280;62197;51.632;13.700;2023-05-19T02:08:16;101197.38;;;6.60;97.13
73860;BME280;62197;51.632;13.700;2023-05-19T02:10:50;101183.41;;;6.55;97.44
73860;BME280;62197;51.632;13.700;2023-05-19T02:13:19;101195.69;;;6.59;98.34
73860;BME280;62197;51.632;13.700;2023-05-19T02:15:51;101196.59;;;6.66;97.69
73860;BME280;62197;51.632;13.700;2023-05-19T02:18:18;101187.91;;;6.63;97.42
73860;BME280;62197;51.632;13.700;2023-05-19T02:20:44;101194.47;;;6.62;97.87
73860;BME280;62197;51.632;13.700;2023-05-19T02:23:09;101194.47;;;6.62;98.39
73860;BME280;62197;51.632;13.700;2023-05-19T02:25:35;101193.34;;;6.56;98.04
73860;BME280;62197;51.632;13.700;2023-05-19T02:28:00;101188.91;;;6.55;98.29
73860;BME280;62197;51.632;13.700;2023-05-19T02:30:25;101191.00;;;6.53;99.05
73860;BME280;62197;51.632;13.700;2023-05-19T02:32:51;101185.28;;;6.48;98.98
73860;BME280;62197;51.632;13.700;2023-05-19T02:35:18;101186.28;;;6.47;99.89
73860;BME280;62197;51.632;13.700;2023-05-19T02:37:43;101189.91;;;6.48;99.64
73860;BME280;62197;51.632;13.700;2023-05-19T02:40:09;101191.13;;;6.45;99.80
73860;BME280;62197;51.632;13.700;2023-05-19T02:42:35;101186.28;;;6.47;99.81
73860;BME280;62197;51.632;13.700;2023-05-19T02:45:00;101192.28;;;6.57;99.64
73860;BME280;62197;51.632;13.700;2023-05-19T02:47:25;101191.72;;;6.62;99.86
73860;BME280;62197;51.632;13.700;2023-05-19T02:49:51;101186.59;;;6.59;99.49
73860;BME280;62197;51.632;13.700;2023-05-19T02:52:16;101190.34;;;6.51;100.00
73860;BME280;62197;51.632;13.700;2023-05-19T02:54:41;101182.91;;;6.45;100.00
73860;BME280;62197;51.632;13.700;2023-05-19T02:57:07;101186.28;;;6.47;100.00
73860;BME280;62197;51.632;13.700;2023-05-19T02:59:32;101187.34;;;6.46;100.00
73860;BME280;62197;51.632;13.700;2023-05-19T03:02:00;101185.66;;;6.45;100.00
73860;BME280;62197;51.632;13.700;2023-05-19T03:04:26;101181.22;;;6.44;100.00
73860;BME280;62197;51.632;13.700;2023-05-19T03:06:51;101185.00;;;6.43;100.00
73860;BME280;62197;51.632;13.700;2023-05-19T03:09:18;101183.97;;;6.44;100.00
73860;BME280;62197;51.632;13.700;2023-05-19T03:11:44;101179.91;;;6.40;100.00
73860;BME280;62197;51.632;13.700;2023-05-19T03:14:09;101176.53;;;6.38;100.00
73860;BME280;62197;51.632;13.700;2023-05-19T03:16:35;101183.25;;;6.35;100.00
73860;BME280;62197;51.632;13.700;2023-05-19T03:19:00;101191.25;;;6.37;100.00
73860;BME280;62197;51.632;13.700;2023-05-19T03:21:25;101178.53;;;6.29;100.00
73860;BME280;62197;51.632;13.700;2023-05-19T03:23:51;101177.06;;;6.27;100.00
73860;BME280;62197;51.632;13.700;2023-05-19T03:26:16;101185.66;;;6.24;100.00
73860;BME280;62197;51.632;13.700;2023-05-19T03:28:41;101193.22;;;6.22;100.00
73860;BME280;62197;51.632;13.700;2023-05-19T03:31:07;101189.78;;;6.13;100.00
73860;BME280;62197;51.632;13.700;2023-05-19T03:33:32;101196.94;;;6.14;100.00
73860;BME280;62197;51.632;13.700;2023-05-19T03:35:57;101201.97;;;6.11;100.00
73860;BME280;62197;51.632;13.700;2023-05-19T03:38:23;101201.31;;;6.09;100.00
73860;BME280;62197;51.632;13.700;2023-05-19T03:40:48;101197.69;;;6.02;100.00
73860;BME280;62197;51.632;13.700;2023-05-19T03:43:14;101201.44;;;6.01;100.00
73860;BME280;62197;51.632;13.700;2023-05-19T03:45:40;101200.59;;;6.00;100.00
73860;BME280;62197;51.632;13.700;2023-05-19T03:48:06;101197.69;;;6.02;100.00
73860;BME280;62197;51.632;13.700;2023-05-19T03:50:31;101205.91;;;6.02;100.00
73860;BME280;62197;51.632;13.700;2023-05-19T03:52:57;101196.63;;;6.03;100.00
73860;BME280;62197;51.632;13.700;2023-05-19T03:55:23;101194.53;;;6.05;100.00
73860;BME280;62197;51.632;13.700;2023-05-19T03:57:49;101195.66;;;6.10;100.00
73860;BME280;62197;51.632;13.700;2023-05-19T04:00:16;101201.41;;;6.15;100.00
73860;BME280;62197;51.632;13.700;2023-05-19T04:02:42;101211.09;;;6.18;100.00
73860;BME280;62197;51.632;13.700;2023-05-19T04:05:09;101207.13;;;6.20;100.00
73860;BME280;62197;51.632;13.700;2023-05-19T04:07:34;101188.97;;;6.19;100.00
73860;BME280;62197;51.632;13.700;2023-05-19T04:10:00;101186.88;;;6.21;100.00
73860;BME280;62197;51.632;13.700;2023-05-19T04:12:26;101193.22;;;6.22;100.00
73860;BME280;62197;51.632;13.700;2023-05-19T04:14:51;101187.41;;;6.31;100.00
73860;BME280;62197;51.632;13.700;2023-05-19T04:17:16;101188.72;;;6.35;100.00
73860;BME280;62197;51.632;13.700;2023-05-19T04:19:42;101189.16;;;6.39;100.00
73860;BME280;62197;51.632;13.700;2023-05-19T04:22:07;101194.28;;;6.42;100.00
73860;BME280;62197;51.632;13.700;2023-05-19T04:24:32;101183.31;;;6.42;100.00
73860;BME280;62197;51.632;13.700;2023-05-19T04:26:58;101191.78;;;6.47;100.00
73860;BME280;62197;51.632;13.700;2023-05-19T04:29:26;101193.94;;;6.52;100.00
73860;BME280;62197;51.632;13.700;2023-05-19T04:31:53;101190.84;;;6.61;100.00
73860;BME280;62197;51.632;13.700;2023-05-19T04:34:19;101193.00;;;6.66;100.00
73860;BME280;62197;51.632;13.700;2023-05-19T04:36:44;101203.78;;;6.67;100.00
73860;BME280;62197;51.632;13.700;2023-05-19T04:39:09;101192.41;;;6.70;100.00
73860;BME280;62197;51.632;13.700;2023-05-19T04:41:36;101189.50;;;6.78;100.00
73860;BME280;62197;51.632;13.700;2023-05-19T04:44:04;101188.66;;;6.78;100.00
73860;BME280;62197;51.632;13.700;2023-05-19T04:46:31;101200.47;;;6.78;100.00
73860;BME280;62197;51.632;13.700;2023-05-19T04:48:56;101192.91;;;6.80;100.00
73860;BME280;62197;51.632;13.700;2023-05-19T04:51:22;101197.19;;;6.89;100.00
73860;BME280;62197;51.632;13.700;2023-05-19T04:53:54;101199.13;;;6.95;100.00
73860;BME280;62197;51.632;13.700;2023-05-19T04:56:20;101197.84;;;6.91;100.00
73860;BME280;62197;51.632;13.700;2023-05-19T04:58:46;101201.88;;;6.95;100.00
73860;BME280;62197;51.632;13.700;2023-05-19T05:01:11;101212.94;;;7.08;100.00
73860;BME280;62197;51.632;13.700;2023-05-19T05:03:38;101210.28;;;7.21;100.00
73860;BME280;62197;51.632;13.700;2023-05-19T05:06:03;101202.94;;;7.28;100.00
73860;BME280;62197;51.632;13.700;2023-05-19T05:08:28;101203.81;;;7.36;100.00
73860;BME280;62197;51.632;13.700;2023-05-19T05:10:54;101207.03;;;7.39;100.00
73860;BME280;62197;51.632;13.700;2023-05-19T05:13:21;101206.59;;;7.42;100.00
73860;BME280;62197;51.632;13.700;2023-05-19T05:15:47;101197.50;;;7.42;100.00
73860;BME280;62197;51.632;13.700;2023-05-19T05:18:13;101202.78;;;7.37;100.00
73860;BME280;62197;51.632;13.700;2023-05-19T05:20:40;101206.59;;;7.42;100.00
73860;BME280;62197;51.632;13.700;2023-05-19T05:23:06;101203.84;;;7.42;100.00
73860;BME280;62197;51.632;13.700;2023-05-19T05:25:33;101201.16;;;7.49;100.00
73860;BME280;62197;51.632;13.700;2023-05-19T05:27:59;101208.97;;;7.52;100.00
73860;BME280;62197;51.632;13.700;2023-05-19T05:30:29;101209.78;;;7.46;100.00
73860;BME280;62197;51.632;13.700;2023-05-19T05:32:54;101201.34;;;7.47;100.00
73860;BME280;62197;51.632;13.700;2023-05-19T05:35:20;101204.56;;;7.51;100.00
73860;BME280;62197;51.632;13.700;2023-05-19T05:37:47;101215.59;;;7.64;100.00
73860;BME280;62197;51.632;13.700;2023-05-19T05:40:13;101215.00;;;7.75;100.00
73860;BME280;62197;51.632;13.700;2023-05-19T05:42:38;101209.75;;;7.80;100.00
73860;BME280;62197;51.632;13.700;2023-05-19T05:45:04;101208.91;;;7.86;100.00
73860;BME280;62197;51.632;13.700;2023-05-19T05:47:29;101208.72;;;7.94;100.00
73860;BME280;62197;51.632;13.700;2023-05-19T05:49:55;101212.75;;;7.98;100.00
73860;BME280;62197;51.632;13.700;2023-05-19T05:52:21;101210.28;;;8.16;100.00
73860;BME280;62197;51.632;13.700;2023-05-19T05:54:51;101215.22;;;8.34;100.00
73860;BME280;62197;51.632;13.700;2023-05-19T05:57:16;101212.69;;;8.58;99.06
73860;BME280;62197;51.632;13.700;2023-05-19T05:59:41;101214.59;;;8.51;98.55
73860;BME280;62197;51.632;13.700;2023-05-19T06:02:09;101219.06;;;8.78;97.38
73860;BME280;62197;51.632;13.700;2023-05-19T06:04:34;101221.38;;;8.81;97.81
73860;BME280;62197;51.632;13.700;2023-05-19T06:06:59;101213.56;;;8.78;96.88
73860;BME280;62197;51.632;13.700;2023-05-19T06:09:25;101215.22;;;8.92;96.91
73860;BME280;62197;51.632;13.700;2023-05-19T06:11:51;101211.84;;;9.03;96.30
73860;BME280;62197;51.632;13.700;2023-05-19T06:14:16;101223.69;;;9.04;95.96
73860;BME280;62197;51.632;13.700;2023-05-19T06:16:42;101217.97;;;9.19;95.99
73860;BME280;62197;51.632;13.700;2023-05-19T06:19:08;101224.06;;;9.34;94.82
73860;BME280;62197;51.632;13.700;2023-05-19T06:21:33;101221.91;;;9.49;94.93
73860;BME280;62197;51.632;13.700;2023-05-19T06:23:59;101232.88;;;9.68;94.19
73860;BME280;62197;51.632;13.700;2023-05-19T06:26:24;101228.63;;;9.79;93.23
73860;BME280;62197;51.632;13.700;2023-05-19T06:28:50;101228.53;;;9.98;92.83
73860;BME280;62197;51.632;13.700;2023-05-19T06:31:16;101236.59;;;10.00;92.67
73860;BME280;62197;51.632;13.700;2023-05-19T06:33:41;101236.13;;;10.16;91.41
73860;BME280;62197;51.632;13.700;2023-05-19T06:36:06;101241.47;;;10.42;90.82
73860;BME280;62197;51.632;13.700;2023-05-19T06:38:34;101224.81;;;10.55;90.61
73860;BME280;62197;51.632;13.700;2023-05-19T06:40:59;101236.59;;;10.69;90.12
73860;BME280;62197;51.632;13.700;2023-05-19T06:43:24;101218.66;;;10.84;89.68
73860;BME280;62197;51.632;13.700;2023-05-19T06:45:49;101223.94;;;11.11;87.97
73860;BME280;62197;51.632;13.700;2023-05-19T06:48:15;101225.06;;;11.28;88.39
73860;BME280;62197;51.632;13.700;2023-05-19T06:50:40;101222.03;;;11.72;86.53
73860;BME280;62197;51.632;13.700;2023-05-19T06:53:05;101230.97;;;11.92;85.06
73860;BME280;62197;51.632;13.700;2023-05-19T06:55:31;101232.31;;;12.01;84.64
73860;BME280;62197;51.632;13.700;2023-05-19T06:57:56;101228.88;;;11.88;84.47
73860;BME280;62197;51.632;13.700;2023-05-19T07:00:21;101230.78;;;11.87;83.94
73860;BME280;62197;51.632;13.700;2023-05-19T07:02:46;101233.38;;;12.00;84.45
73860;BME280;62197;51.632;13.700;2023-05-19T07:05:12;101234.22;;;12.48;81.97
73860;BME280;62197;51.632;13.700;2023-05-19T07:07:37;101228.81;;;12.24;81.96
73860;BME280;62197;51.632;13.700;2023-05-19T07:10:02;101230.28;;;12.26;82.40
73860;BME280;62197;51.632;13.700;2023-05-19T07:12:28;101232.03;;;12.50;82.08
73860;BME280;62197;51.632;13.700;2023-05-19T07:14:53;101219.84;;;12.69;81.77
73860;BME280;62197;51.632;13.700;2023-05-19T07:17:18;101212.88;;;12.79;81.03
73860;BME280;62197;51.632;13.700;2023-05-19T07:19:44;101223.09;;;12.78;80.93
73860;BME280;62197;51.632;13.700;2023-05-19T07:22:09;101227.78;;;12.78;80.46
73860;BME280;62197;51.632;13.700;2023-05-19T07:24:34;101226.75;;;13.02;79.22
73860;BME280;62197;51.632;13.700;2023-05-19T07:27:00;101227.28;;;13.33;76.57
73860;BME280;62197;51.632;13.700;2023-05-19T07:29:25;101236.91;;;13.66;74.81
73860;BME280;62197;51.632;13.700;2023-05-19T07:31:50;101232.75;;;13.91;73.48
73860;BME280;62197;51.632;13.700;2023-05-19T07:34:19;101241.03;;;14.14;72.77
73860;BME280;62197;51.632;13.700;2023-05-19T07:36:44;101228.16;;;14.36;72.13
73860;BME280;62197;51.632;13.700;2023-05-19T07:39:09;101226.91;;;14.72;70.78
73860;BME280;62197;51.632;13.700;2023-05-19T07:41:35;101224.19;;;14.61;70.46
73860;BME280;62197;51.632;13.700;2023-05-19T07:44:00;101220.97;;;14.52;70.32
73860;BME280;62197;51.632;13.700;2023-05-19T07:46:26;101223.91;;;14.45;69.36
73860;BME280;62197;51.632;13.700;2023-05-19T07:48:51;101197.56;;;14.48;69.96
73860;BME280;62197;51.632;13.700;2023-05-19T07:51:17;101211.63;;;14.58;68.79
73860;BME280;62197;51.632;13.700;2023-05-19T07:53:43;101216.38;;;14.91;69.62
73860;BME280;62197;51.632;13.700;2023-05-19T07:56:08;101209.16;;;15.23;67.12
73860;BME280;62197;51.632;13.700;2023-05-19T07:58:34;101210.56;;;15.25;66.97
73860;BME280;62197;51.632;13.700;2023-05-19T08:00:59;101207.69;;;15.37;67.17
73860;BME280;62197;51.632;13.700;2023-05-19T08:03:25;101195.78;;;15.58;66.16
73860;BME280;62197;51.632;13.700;2023-05-19T08:05:50;101192.03;;;15.31;66.20
73860;BME280;62197;51.632;13.700;2023-05-19T08:08:16;101197.69;;;15.74;64.02
73860;BME280;62197;51.632;13.700;2023-05-19T08:10:43;101199.34;;;15.37;64.70
73860;BME280;62197;51.632;13.700;2023-05-19T08:13:09;101200.53;;;15.08;65.78
73860;BME280;62197;51.632;13.700;2023-05-19T08:15:34;101204.38;;;15.02;66.30
73860;BME280;62197;51.632;13.700;2023-05-19T08:17:59;101186.31;;;15.21;65.87
73860;BME280;62197;51.632;13.700;2023-05-19T08:20:25;101195.41;;;15.50;65.53
73860;BME280;62197;51.632;13.700;2023-05-19T08:22:51;101195.06;;;15.46;66.15
73860;BME280;62197;51.632;13.700;2023-05-19T08:25:16;101178.06;;;15.64;64.80
73860;BME280;62197;51.632;13.700;2023-05-19T08:27:43;101180.03;;;15.64;63.98
73860;BME280;62197;51.632;13.700;2023-05-19T08:30:10;101184.75;;;16.06;63.05
73860;BME280;62197;51.632;13.700;2023-05-19T08:32:35;101176.69;;;16.32;60.84
73860;BME280;62197;51.632;13.700;2023-05-19T08:35:00;101182.84;;;16.92;58.39
73860;BME280;62197;51.632;13.700;2023-05-19T08:37:26;101169.94;;;16.81;58.42
73860;BME280;62197;51.632;13.700;2023-05-19T08:39:51;101174.25;;;16.40;59.27
73860;BME280;62197;51.632;13.700;2023-05-19T08:42:16;101164.56;;;16.48;60.10
73860;BME280;62197;51.632;13.700;2023-05-19T08:44:42;101153.69;;;16.73;60.80
73860;BME280;62197;51.632;13.700;2023-05-19T08:47:08;101160.84;;;16.59;59.50
73860;BME280;62197;51.632;13.700;2023-05-19T08:49:42;101163.84;;;16.84;57.97
73860;BME280;62197;51.632;13.700;2023-05-19T08:54:44;101166.38;;;16.32;57.66
73860;BME280;62197;51.632;13.700;2023-05-19T08:57:11;101178.28;;;16.49;56.24
73860;BME280;62197;51.632;13.700;2023-05-19T08:59:38;101166.03;;;17.13;56.20
73860;BME280;62197;51.632;13.700;2023-05-19T09:02:04;101156.38;;;16.63;57.01
73860;BME280;62197;51.632;13.700;2023-05-19T09:04:30;101164.72;;;16.58;54.78
73860;BME280;62197;51.632;13.700;2023-05-19T09:06:57;101150.22;;;16.87;55.12
73860;BME280;62197;51.632;13.700;2023-05-19T09:09:26;101155.16;;;17.17;54.78
73860;BME280;62197;51.632;13.700;2023-05-19T09:11:52;101139.63;;;16.89;54.73
73860;BME280;62197;51.632;13.700;2023-05-19T09:14:17;101145.78;;;17.33;54.33
73860;BME280;62197;51.632;13.700;2023-05-19T09:16:44;101161.41;;;17.71;52.10
73860;BME280;62197;51.632;13.700;2023-05-19T09:19:12;101171.00;;;17.95;51.17
73860;BME280;62197;51.632;13.700;2023-05-19T09:21:39;101151.63;;;17.73;52.06
73860;BME280;62197;51.632;13.700;2023-05-19T09:24:06;101154.31;;;17.53;51.90
73860;BME280;62197;51.632;13.700;2023-05-19T09:26:41;101148.25;;;17.71;51.95
73860;BME280;62197;51.632;13.700;2023-05-19T09:29:14;101161.75;;;17.89;51.84
73860;BME280;62197;51.632;13.700;2023-05-19T09:31:46;101149.78;;;17.99;50.75
73860;BME280;62197;51.632;13.700;2023-05-19T09:34:13;101145.84;;;17.95;51.10
73860;BME280;62197;51.632;13.700;2023-05-19T09:36:39;101144.88;;;17.59;52.30
73860;BME280;62197;51.632;13.700;2023-05-19T09:39:12;101150.00;;;17.87;52.00
73860;BME280;62197;51.632;13.700;2023-05-19T09:41:38;101163.53;;;18.21;51.99
73860;BME280;62197;51.632;13.700;2023-05-19T09:44:04;101143.81;;;17.75;52.67
73860;BME280;62197;51.632;13.700;2023-05-19T09:46:31;101150.81;;;17.78;52.83
73860;BME280;62197;51.632;13.700;2023-05-19T09:48:57;101132.75;;;17.02;55.39
73860;BME280;62197;51.632;13.700;2023-05-19T09:51:23;101141.91;;;17.34;53.00
73860;BME280;62197;51.632;13.700;2023-05-19T09:53:49;101136.19;;;17.14;53.99
73860;BME280;62197;51.632;13.700;2023-05-19T09:56:14;101135.75;;;17.32;52.26
73860;BME280;62197;51.632;13.700;2023-05-19T09:58:43;101141.41;;;18.04;50.45
73860;BME280;62197;51.632;13.700;2023-05-19T10:01:09;101127.88;;;18.63;50.36
73860;BME280;62197;51.632;13.700;2023-05-19T10:03:35;101132.63;;;18.92;49.15
73860;BME280;62197;51.632;13.700;2023-05-19T10:06:03;101128.97;;;19.07;46.68
73860;BME280;62197;51.632;13.700;2023-05-19T10:08:29;101134.31;;;18.63;48.06
73860;BME280;62197;51.632;13.700;2023-05-19T10:10:55;101123.59;;;19.51;47.64
73860;BME280;62197;51.632;13.700;2023-05-19T10:13:21;101132.63;;;20.02;46.12
73860;BME280;62197;51.632;13.700;2023-05-19T10:15:49;101125.28;;;19.47;45.70
73860;BME280;62197;51.632;13.700;2023-05-19T10:18:16;101125.06;;;18.98;45.15
73860;BME280;62197;51.632;13.700;2023-05-19T10:20:42;101128.41;;;19.10;47.28
73860;BME280;62197;51.632;13.700;2023-05-19T10:23:08;101124.94;;;19.63;46.95
73860;BME280;62197;51.632;13.700;2023-05-19T10:25:33;101122.72;;;19.60;45.56
73860;BME280;62197;51.632;13.700;2023-05-19T10:28:06;101112.41;;;19.31;45.37
73860;BME280;62197;51.632;13.700;2023-05-19T10:30:43;101116.69;;;18.78;45.98
73860;BME280;62197;51.632;13.700;2023-05-19T10:33:12;101122.84;;;18.65;46.31
73860;BME280;62197;51.632;13.700;2023-05-19T10:38:26;101107.19;;;18.79;46.02
73860;BME280;62197;51.632;13.700;2023-05-19T10:41:26;101103.78;;;19.12;45.92
73860;BME280;62197;51.632;13.700;2023-05-19T10:44:08;101105.22;;;18.74;45.82
73860;BME280;62197;51.632;13.700;2023-05-19T10:46:34;101111.91;;;18.83;45.93
73860;BME280;62197;51.632;13.700;2023-05-19T10:48:59;101094.25;;;19.13;45.59
73860;BME280;62197;51.632;13.700;2023-05-19T10:51:30;101091.69;;;19.32;45.42
73860;BME280;62197;51.632;13.700;2023-05-19T10:53:56;101094.53;;;19.22;45.24
73860;BME280;62197;51.632;13.700;2023-05-19T10:56:28;101099.78;;;19.53;44.12
73860;BME280;62197;51.632;13.700;2023-05-19T10:58:54;101094.34;;;20.31;43.16
73860;BME280;62197;51.632;13.700;2023-05-19T11:01:19;101104.00;;;20.87;41.92
73860;BME280;62197;51.632;13.700;2023-05-19T11:03:51;101102.16;;;21.06;41.42
73860;BME280;62197;51.632;13.700;2023-05-19T11:06:27;101104.16;;;21.82;39.94
73860;BME280;62197;51.632;13.700;2023-05-19T11:09:14;101115.31;;;22.66;37.71
73860;BME280;62197;51.632;13.700;2023-05-19T11:11:49;101109.31;;;23.78;35.40
73860;BME280;62197;51.632;13.700;2023-05-19T11:14:20;101099.72;;;23.79;34.90
73860;BME280;62197;51.632;13.700;2023-05-19T11:16:51;101109.66;;;24.39;35.73
73860;BME280;62197;51.632;13.700;2023-05-19T11:19:27;101107.66;;;23.63;35.54
73860;BME280;62197;51.632;13.700;2023-05-19T11:21:53;101109.94;;;21.14;39.28
73860;BME280;62197;51.632;13.700;2023-05-19T11:24:44;101112.50;;;19.95;41.67
73860;BME280;62197;51.632;13.700;2023-05-19T11:29:44;101106.91;;;18.90;44.47
73860;BME280;62197;51.632;13.700;2023-05-19T11:32:12;101112.06;;;19.67;44.23
73860;BME280;62197;51.632;13.700;2023-05-19T11:34:38;101111.72;;;20.38;42.40
73860;BME280;62197;51.632;13.700;2023-05-19T11:37:05;101108.91;;;20.33;42.68
73860;BME280;62197;51.632;13.700;2023-05-19T11:39:31;101095.13;;;19.14;44.71
73860;BME280;62197;51.632;13.700;2023-05-19T11:41:56;101090.41;;;18.84;46.36
73860;BME280;62197;51.632;13.700;2023-05-19T11:44:22;101103.47;;;19.19;47.12
73860;BME280;62197;51.632;13.700;2023-05-19T11:46:47;101099.19;;;19.61;45.56
73860;BME280;62197;51.632;13.700;2023-05-19T11:49:13;101097.25;;;19.62;45.46
73860;BME280;62197;51.632;13.700;2023-05-19T11:51:42;101090.56;;;20.50;43.09
73860;BME280;62197;51.632;13.700;2023-05-19T11:54:09;101094.25;;;22.26;41.86
73860;BME280;62197;51.632;13.700;2023-05-19T11:56:38;101101.78;;;22.68;39.56
73860;BME280;62197;51.632;13.700;2023-05-19T11:59:04;101106.03;;;21.63;40.73
73860;BME280;62197;51.632;13.700;2023-05-19T12:01:30;101092.63;;;20.40;43.29
73860;BME280;62197;51.632;13.700;2023-05-19T12:03:56;101099.88;;;20.80;42.45
73860;BME280;62197;51.632;13.700;2023-05-19T12:06:21;101103.25;;;20.43;42.98
73860;BME280;62197;51.632;13.700;2023-05-19T12:08:50;101099.25;;;19.46;44.71
73860;BME280;62197;51.632;13.700;2023-05-19T12:11:15;101099.84;;;19.18;43.94
73860;BME280;62197;51.632;13.700;2023-05-19T12:13:40;101107.69;;;19.21;45.20
73860;BME280;62197;51.632;13.700;2023-05-19T12:16:07;101100.72;;;19.14;46.45
73860;BME280;62197;51.632;13.700;2023-05-19T12:18:36;101107.66;;;19.31;45.85
73860;BME280;62197;51.632;13.700;2023-05-19T12:21:02;101100.34;;;19.60;45.28
73860;BME280;62197;51.632;13.700;2023-05-19T12:23:27;101082.88;;;19.84;44.33
73860;BME280;62197;51.632;13.700;2023-05-19T12:25:55;101090.41;;;21.04;43.69
73860;BME280;62197;51.632;13.700;2023-05-19T12:28:21;101084.38;;;20.15;44.09
73860;BME280;62197;51.632;13.700;2023-05-19T12:30:48;101090.50;;;20.22;43.67
73860;BME280;62197;51.632;13.700;2023-05-19T12:33:16;101095.56;;;20.20;45.64
73860;BME280;62197;51.632;13.700;2023-05-19T12:35:43;101097.94;;;18.93;46.46
73860;BME280;62197;51.632;13.700;2023-05-19T12:38:08;101089.56;;;18.43;48.79
73860;BME280;62197;51.632;13.700;2023-05-19T12:40:34;101101.31;;;18.80;48.61
73860;BME280;62197;51.632;13.700;2023-05-19T12:43:01;101090.91;;;18.36;47.63
73860;BME280;62197;51.632;13.700;2023-05-19T12:45:26;101088.16;;;18.86;47.14
73860;BME280;62197;51.632;13.700;2023-05-19T12:47:52;101078.91;;;18.25;48.69
73860;BME280;62197;51.632;13.700;2023-05-19T12:50:18;101082.50;;;18.26;49.11
73860;BME280;62197;51.632;13.700;2023-05-19T12:52:48;101092.56;;;18.17;48.66
73860;BME280;62197;51.632;13.700;2023-05-19T12:55:17;101078.75;;;17.70;50.33
73860;BME280;62197;51.632;13.700;2023-05-19T12:57:48;101089.47;;;17.41;52.24
73860;BME280;62197;51.632;13.700;2023-05-19T13:00:21;101084.84;;;17.62;51.16